sensor_id;sensor_type;location;lat;lon;timestamp;pressure;altitude;pressure_sealevel;temperature;humidity
25610;BME280;13479;49.044;8.716;2022-12-18T05:02:10;100373.13;;;-6.70;72.47
25610;BME280;13479;49.044;8.716;2022-12-18T05:04:36;100331.78;;;-6.67;71.81
25610;BME280;13479;49.044;8.716;2022-12-18T05:07:01;100325.81;;;-6.60;72.20
25610;BME280;13479;49.044;8.716;2022-12-18T05:09:26;100325.72;;;-6.69;72.09
25610;BME280;13479;49.044;8.716;2022-12-18T05:11:52;100307.59;;;-6.78;72.58
25610;BME280;13479;49.044;8.716;2022-12-18T05:14:17;100311.97;;;-6.63;72.18
25610;BME280;13479;49.044;8.716;2022-12-18T05:16:42;100376.66;;;-6.53;70.90
25610;BME280;13479;49.044;8.716;2022-12-18T05:19:07;100429.19;;;-6.54;71.11
25610;BME280;13479;49.044;8.716;2022-12-18T05:21:33;100414.38;;;-6.76;71.58
25610;BME280;13479;49.044;8.716;2022-12-18T05:23:58;100407.63;;;-6.59;71.03
25610;BME280;13479;49.044;8.716;2022-12-18T05:26:23;100412.63;;;-6.80;71.45
25610;BME280;13479;49.044;8.716;2022-12-18T05:28:48;100417.88;;;-6.68;71.22
25610;BME280;13479;49.044;8.716;2022-12-18T05:31:14;100417.88;;;-6.70;71.34
25610;BME280;13479;49.044;8.716;2022-12-18T05:33:39;100424.72;;;-6.75;71.42
25610;BME280;13479;49.044;8.716;2022-12-18T05:36:06;100432.53;;;-6.70;70.76
25610;BME280;13479;49.044;8.716;2022-12-18T05:38:35;100419.59;;;-6.73;71.17
25610;BME280;13479;49.044;8.716;2022-12-18T05:41:01;100427.34;;;-6.69;70.68
25610;BME280;13479;49.044;8.716;2022-12-18T05:43:27;100433.38;;;-6.71;70.94
25610;BME280;13479;49.044;8.716;2022-12-18T05:45:53;100427.34;;;-6.73;70.81
25610;BME280;13479;49.044;8.716;2022-12-18T05:48:19;100429.00;;;-6.78;71.17
25610;BME280;13479;49.044;8.716;2022-12-18T05:50:46;100416.09;;;-6.81;71.33
25610;BME280;13479;49.044;8.716;2022-12-18T05:53:14;100378.19;;;-6.83;71.79
25610;BME280;13479;49.044;8.716;2022-12-18T05:55:41;100373.84;;;-6.87;70.99
25610;BME280;13479;49.044;8.716;2022-12-18T05:58:08;100366.13;;;-6.80;71.05
25610;BME280;13479;49.044;8.716;2022-12-18T06:00:36;100362.69;;;-6.83;71.10
25610;BME280;13479;49.044;8.716;2022-12-18T06:03:05;100366.13;;;-6.84;71.24
25610;BME280;13479;49.044;8.716;2022-12-18T06:05:51;100391.09;;;-6.81;70.92
25610;BME280;13479;49.044;8.716;2022-12-18T06:08:17;100361.72;;;-6.97;71.50
25610;BME280;13479;49.044;8.716;2022-12-18T06:10:49;100377.28;;;-6.88;70.74
25610;BME280;13479;49.044;8.716;2022-12-18T06:13:16;100370.34;;;-6.92;71.29
25610;BME280;13479;49.044;8.716;2022-12-18T06:15:41;100363.50;;;-6.91;71.08
25610;BME280;13479;49.044;8.716;2022-12-18T06:18:06;100367.75;;;-6.98;71.39
25610;BME280;13479;49.044;8.716;2022-12-18T06:20:31;100359.13;;;-7.02;71.07
25610;BME280;13479;49.044;8.716;2022-12-18T06:22:57;100363.44;;;-6.98;71.28
25610;BME280;13479;49.044;8.716;2022-12-18T06:25:22;100416.00;;;-6.94;70.51
25610;BME280;13479;49.044;8.716;2022-12-18T06:27:47;100429.75;;;-6.95;70.39
25610;BME280;13479;49.044;8.716;2022-12-18T06:30:13;100431.47;;;-6.94;70.57
25610;BME280;13479;49.044;8.716;2022-12-18T06:32:38;100433.16;;;-6.99;70.76
25610;BME280;13479;49.044;8.716;2022-12-18T06:35:04;100429.72;;;-6.98;71.28
25610;BME280;13479;49.044;8.716;2022-12-18T06:37:30;100421.06;;;-7.03;71.20
25610;BME280;13479;49.044;8.716;2022-12-18T06:39:56;100420.22;;;-7.02;70.84
25610;BME280;13479;49.044;8.716;2022-12-18T06:42:21;100420.16;;;-7.10;71.18
25610;BME280;13479;49.044;8.716;2022-12-18T06:44:47;100398.63;;;-7.12;71.12
25610;BME280;13479;49.044;8.716;2022-12-18T06:47:12;100384.88;;;-7.11;71.19
25610;BME280;13479;49.044;8.716;2022-12-18T06:49:37;100383.97;;;-7.16;70.96
25610;BME280;13479;49.044;8.716;2022-12-18T06:52:02;100375.38;;;-7.17;71.62
25610;BME280;13479;49.044;8.716;2022-12-18T06:54:28;100375.38;;;-7.17;71.11
25610;BME280;13479;49.044;8.716;2022-12-18T06:56:56;100380.50;;;-7.21;71.33
25610;BME280;13479;49.044;8.716;2022-12-18T06:59:21;100370.09;;;-7.27;71.51
25610;BME280;13479;49.044;8.716;2022-12-18T07:01:46;100348.59;;;-7.28;71.35
25610;BME280;13479;49.044;8.716;2022-12-18T07:04:12;100328.81;;;-7.27;71.88
25610;BME280;13479;49.044;8.716;2022-12-18T07:06:37;100314.13;;;-7.33;72.30
25610;BME280;13479;49.044;8.716;2022-12-18T07:09:02;100283.13;;;-7.36;71.71
25610;BME280;13479;49.044;8.716;2022-12-18T07:11:28;100234.13;;;-7.38;72.54
25610;BME280;13479;49.044;8.716;2022-12-18T07:13:53;100222.97;;;-7.32;72.60
25610;BME280;13479;49.044;8.716;2022-12-18T07:16:21;100221.25;;;-7.33;72.86
25610;BME280;13479;49.044;8.716;2022-12-18T07:18:47;100208.41;;;-7.27;72.50
25610;BME280;13479;49.044;8.716;2022-12-18T07:21:14;100220.38;;;-7.31;71.95
25610;BME280;13479;49.044;8.716;2022-12-18T07:23:40;100194.63;;;-7.23;72.50
25610;BME280;13479;49.044;8.716;2022-12-18T07:26:08;100177.41;;;-7.25;72.90
25610;BME280;13479;49.044;8.716;2022-12-18T07:28:35;100167.97;;;-7.22;72.72
25610;BME280;13479;49.044;8.716;2022-12-18T07:31:09;100146.47;;;-7.19;73.66
25610;BME280;13479;49.044;8.716;2022-12-18T07:33:34;100136.16;;;-7.19;72.97
25610;BME280;13479;49.044;8.716;2022-12-18T07:36:00;100124.13;;;-7.17;73.39
25610;BME280;13479;49.044;8.716;2022-12-18T07:38:26;100117.25;;;-7.12;73.64
25610;BME280;13479;49.044;8.716;2022-12-18T07:40:51;100098.34;;;-7.05;73.51
25610;BME280;13479;49.044;8.716;2022-12-18T07:43:16;100129.38;;;-6.89;73.65
25610;BME280;13479;49.044;8.716;2022-12-18T07:45:42;100157.84;;;-6.71;73.07
25610;BME280;13479;49.044;8.716;2022-12-18T07:48:07;100210.34;;;-6.75;72.95
25610;BME280;13479;49.044;8.716;2022-12-18T07:50:33;100218.97;;;-6.63;73.00
25610;BME280;13479;49.044;8.716;2022-12-18T07:52:58;100250.84;;;-6.66;72.80
25610;BME280;13479;49.044;8.716;2022-12-18T07:55:23;100280.16;;;-6.58;72.61
25610;BME280;13479;49.044;8.716;2022-12-18T07:57:48;100290.66;;;-6.02;71.33
25610;BME280;13479;49.044;8.716;2022-12-18T08:00:14;100435.69;;;-5.24;69.70
25610;BME280;13479;49.044;8.716;2022-12-18T08:02:39;100552.31;;;-4.58;69.02
25610;BME280;13479;49.044;8.716;2022-12-18T08:05:05;100721.84;;;-3.89;66.38
25610;BME280;13479;49.044;8.716;2022-12-18T08:07:30;100618.78;;;-3.37;63.71
25610;BME280;13479;49.044;8.716;2022-12-18T08:09:55;100530.22;;;-2.91;62.84
25610;BME280;13479;49.044;8.716;2022-12-18T08:12:20;100455.38;;;-2.50;61.40
25610;BME280;13479;49.044;8.716;2022-12-18T08:14:46;100406.66;;;-2.34;60.01
25610;BME280;13479;49.044;8.716;2022-12-18T08:17:11;100385.56;;;-2.09;58.73
25610;BME280;13479;49.044;8.716;2022-12-18T08:19:36;100330.53;;;-2.52;60.34
25610;BME280;13479;49.044;8.716;2022-12-18T08:22:01;100306.91;;;-2.33;60.35
25610;BME280;13479;49.044;8.716;2022-12-18T08:24:27;100320.91;;;-1.76;58.78
25610;BME280;13479;49.044;8.716;2022-12-18T08:26:52;100311.47;;;-1.29;57.46
25610;BME280;13479;49.044;8.716;2022-12-18T08:29:17;100312.78;;;-1.03;56.53
25610;BME280;13479;49.044;8.716;2022-12-18T08:31:43;100327.09;;;-0.77;55.85
25610;BME280;13479;49.044;8.716;2022-12-18T08:34:08;100316.16;;;-0.51;55.69
25610;BME280;13479;49.044;8.716;2022-12-18T08:36:34;100326.13;;;-0.26;54.85
25610;BME280;13479;49.044;8.716;2022-12-18T08:38:59;100336.94;;;-0.04;53.69
25610;BME280;13479;49.044;8.716;2022-12-18T08:41:24;100337.41;;;0.15;53.25
25610;BME280;13479;49.044;8.716;2022-12-18T08:43:49;100335.56;;;0.21;52.73
25610;BME280;13479;49.044;8.716;2022-12-18T08:46:38;100325.25;;;0.16;53.07
25610;BME280;13479;49.044;8.716;2022-12-18T08:49:05;100321.97;;;0.44;51.99
25610;BME280;13479;49.044;8.716;2022-12-18T08:51:31;100312.81;;;0.98;51.63
25610;BME280;13479;49.044;8.716;2022-12-18T08:53:56;100308.44;;;0.99;51.24
25610;BME280;13479;49.044;8.716;2022-12-18T08:56:21;100310.28;;;1.28;50.37
25610;BME280;13479;49.044;8.716;2022-12-18T08:58:47;100329.03;;;1.44;49.71
25610;BME280;13479;49.044;8.716;2022-12-18T09:01:12;100326.75;;;1.32;49.87
25610;BME280;13479;49.044;8.716;2022-12-18T09:03:38;100316.09;;;1.39;49.62
25610;BME280;13479;49.044;8.716;2022-12-18T09:06:04;100311.81;;;1.37;49.45
25610;BME280;13479;49.044;8.716;2022-12-18T09:08:29;100296.34;;;1.28;49.99
25610;BME280;13479;49.044;8.716;2022-12-18T09:10:55;100296.09;;;1.37;50.54
25610;BME280;13479;49.044;8.716;2022-12-18T09:13:20;100295.78;;;1.16;50.04
25610;BME280;13479;49.044;8.716;2022-12-18T09:15:48;100270.28;;;1.54;50.55
25610;BME280;13479;49.044;8.716;2022-12-18T09:18:15;100310.47;;;1.53;50.06
25610;BME280;13479;49.044;8.716;2022-12-18T09:20:41;100287.25;;;1.41;50.43
25610;BME280;13479;49.044;8.716;2022-12-18T09:23:07;100291.41;;;1.80;49.74
25610;BME280;13479;49.044;8.716;2022-12-18T09:25:33;100309.53;;;1.86;48.97
25610;BME280;13479;49.044;8.716;2022-12-18T09:28:05;100306.22;;;2.09;49.04
25610;BME280;13479;49.044;8.716;2022-12-18T09:30:31;100298.19;;;1.56;50.50
25610;BME280;13479;49.044;8.716;2022-12-18T09:32:58;100290.44;;;1.19;50.66
25610;BME280;13479;49.044;8.716;2022-12-18T09:35:24;100275.66;;;1.50;49.87
25610;BME280;13479;49.044;8.716;2022-12-18T09:37:49;100310.13;;;1.66;50.03
25610;BME280;13479;49.044;8.716;2022-12-18T09:40:16;100318.19;;;1.58;49.38
25610;BME280;13479;49.044;8.716;2022-12-18T09:42:45;100302.09;;;1.41;49.95
25610;BME280;13479;49.044;8.716;2022-12-18T09:45:14;100270.53;;;1.15;51.13
25610;BME280;13479;49.044;8.716;2022-12-18T09:47:41;100263.59;;;1.13;50.83
25610;BME280;13479;49.044;8.716;2022-12-18T09:50:26;100257.19;;;1.25;50.61
25610;BME280;13479;49.044;8.716;2022-12-18T09:52:56;100242.59;;;1.47;51.06
25610;BME280;13479;49.044;8.716;2022-12-18T09:55:28;100315.34;;;2.26;49.03
25610;BME280;13479;49.044;8.716;2022-12-18T09:58:02;100367.09;;;2.76;48.41
25610;BME280;13479;49.044;8.716;2022-12-18T10:00:29;100382.38;;;3.17;47.35
25610;BME280;13479;49.044;8.716;2022-12-18T10:03:03;100385.88;;;3.43;46.42
25610;BME280;13479;49.044;8.716;2022-12-18T10:05:42;100384.97;;;3.93;45.04
25610;BME280;13479;49.044;8.716;2022-12-18T10:08:23;100383.41;;;3.63;45.44
25610;BME280;13479;49.044;8.716;2022-12-18T10:10:57;100384.03;;;3.45;45.87
25610;BME280;13479;49.044;8.716;2022-12-18T10:13:43;100355.69;;;2.49;46.82
25610;BME280;13479;49.044;8.716;2022-12-18T10:16:16;100293.22;;;2.88;47.71
25610;BME280;13479;49.044;8.716;2022-12-18T10:21:51;100373.38;;;3.75;45.39
25610;BME280;13479;49.044;8.716;2022-12-18T10:24:29;100368.75;;;3.56;45.64
25610;BME280;13479;49.044;8.716;2022-12-18T10:27:29;100362.03;;;3.49;45.19
25610;BME280;13479;49.044;8.716;2022-12-18T10:29:55;100361.63;;;3.34;45.94
25610;BME280;13479;49.044;8.716;2022-12-18T10:32:26;100364.97;;;3.39;45.93
25610;BME280;13479;49.044;8.716;2022-12-18T10:34:54;100370.38;;;3.09;46.05
25610;BME280;13479;49.044;8.716;2022-12-18T10:37:22;100358.25;;;3.05;46.11
25610;BME280;13479;49.044;8.716;2022-12-18T10:40:12;100341.63;;;2.51;47.39
25610;BME280;13479;49.044;8.716;2022-12-18T10:42:38;100296.41;;;2.44;47.95
25610;BME280;13479;49.044;8.716;2022-12-18T10:45:10;100270.50;;;2.35;48.30
25610;BME280;13479;49.044;8.716;2022-12-18T10:47:36;100251.16;;;2.39;48.07
25610;BME280;13479;49.044;8.716;2022-12-18T10:50:18;100230.03;;;2.44;48.54
25610;BME280;13479;49.044;8.716;2022-12-18T10:52:53;100237.91;;;2.69;48.53
25610;BME280;13479;49.044;8.716;2022-12-18T10:55:19;100247.72;;;2.64;47.82
25610;BME280;13479;49.044;8.716;2022-12-18T10:57:44;100247.41;;;2.73;48.42
25610;BME280;13479;49.044;8.716;2022-12-18T11:00:21;100256.34;;;2.93;47.74
25610;BME280;13479;49.044;8.716;2022-12-18T11:02:47;100272.13;;;3.17;47.14
25610;BME280;13479;49.044;8.716;2022-12-18T11:05:35;100296.75;;;2.87;47.15
25610;BME280;13479;49.044;8.716;2022-12-18T11:08:02;100282.75;;;2.35;48.05
25610;BME280;13479;49.044;8.716;2022-12-18T11:10:32;100241.75;;;2.32;49.31
25610;BME280;13479;49.044;8.716;2022-12-18T11:13:12;100232.97;;;2.06;49.66
25610;BME280;13479;49.044;8.716;2022-12-18T11:15:41;100226.13;;;2.02;50.17
25610;BME280;13479;49.044;8.716;2022-12-18T11:18:28;100213.31;;;1.93;50.70
25610;BME280;13479;49.044;8.716;2022-12-18T11:21:06;100195.72;;;1.68;50.70
25610;BME280;13479;49.044;8.716;2022-12-18T11:23:33;100180.84;;;1.70;51.25
25610;BME280;13479;49.044;8.716;2022-12-18T11:26:01;100195.69;;;1.39;50.90
25610;BME280;13479;49.044;8.716;2022-12-18T11:28:34;100180.47;;;0.92;52.68
25610;BME280;13479;49.044;8.716;2022-12-18T11:33:39;100148.06;;;0.34;55.11
25610;BME280;13479;49.044;8.716;2022-12-18T11:36:09;100139.69;;;0.19;55.10
25610;BME280;13479;49.044;8.716;2022-12-18T11:38:38;100128.47;;;0.15;55.31
25610;BME280;13479;49.044;8.716;2022-12-18T11:41:25;100122.06;;;-0.07;56.09
25610;BME280;13479;49.044;8.716;2022-12-18T11:44:16;100114.88;;;0.03;56.19
25610;BME280;13479;49.044;8.716;2022-12-18T11:46:48;100115.47;;;0.14;56.25
25610;BME280;13479;49.044;8.716;2022-12-18T11:49:29;100117.97;;;0.19;56.83
25610;BME280;13479;49.044;8.716;2022-12-18T11:52:25;100116.88;;;0.27;56.35
25610;BME280;13479;49.044;8.716;2022-12-18T11:54:55;100115.06;;;0.29;56.07
25610;BME280;13479;49.044;8.716;2022-12-18T12:00:07;100113.34;;;0.28;56.39
25610;BME280;13479;49.044;8.716;2022-12-18T12:11:06;100090.56;;;-0.34;58.13
25610;BME280;13479;49.044;8.716;2022-12-18T12:13:40;100074.28;;;-0.45;59.05
25610;BME280;13479;49.044;8.716;2022-12-18T12:19:11;100076.91;;;-0.47;59.17
25610;BME280;13479;49.044;8.716;2022-12-18T12:22:00;100084.09;;;-0.55;59.46
25610;BME280;13479;49.044;8.716;2022-12-18T12:27:50;100072.09;;;-0.63;60.33
25610;BME280;13479;49.044;8.716;2022-12-18T12:30:22;100072.00;;;-0.59;60.05
25610;BME280;13479;49.044;8.716;2022-12-18T12:38:30;100085.81;;;-0.54;60.23
25610;BME280;13479;49.044;8.716;2022-12-18T12:40:59;100088.53;;;-0.60;60.30
25610;BME280;13479;49.044;8.716;2022-12-18T12:43:41;100096.91;;;-0.46;59.72
25610;BME280;13479;49.044;8.716;2022-12-18T12:46:10;100124.88;;;-0.51;59.84
25610;BME280;13479;49.044;8.716;2022-12-18T12:48:49;100103.16;;;-0.53;60.13
25610;BME280;13479;49.044;8.716;2022-12-18T12:51:21;100087.50;;;-0.53;60.59
25610;BME280;13479;49.044;8.716;2022-12-18T12:53:48;100090.91;;;-0.50;60.05
25610;BME280;13479;49.044;8.716;2022-12-18T12:56:16;100086.69;;;-0.55;60.75
25610;BME280;13479;49.044;8.716;2022-12-18T12:58:58;100084.09;;;-0.55;60.35
25610;BME280;13479;49.044;8.716;2022-12-18T13:04:13;100077.44;;;-0.69;60.71
25610;BME280;13479;49.044;8.716;2022-12-18T13:06:50;100059.31;;;-0.75;61.29
25610;BME280;13479;49.044;8.716;2022-12-18T13:09:19;100068.75;;;-0.69;61.29
25610;BME280;13479;49.044;8.716;2022-12-18T13:11:46;100059.13;;;-0.67;61.37
25610;BME280;13479;49.044;8.716;2022-12-18T13:14:36;100053.09;;;-0.69;61.77
25610;BME280;13479;49.044;8.716;2022-12-18T13:17:26;100054.72;;;-0.64;61.92
25610;BME280;13479;49.044;8.716;2022-12-18T13:20:11;100060.91;;;-0.32;61.49
25610;BME280;13479;49.044;8.716;2022-12-18T13:22:43;100115.72;;;-0.33;60.56
25610;BME280;13479;49.044;8.716;2022-12-18T13:35:42;100063.53;;;-0.69;61.48
25610;BME280;13479;49.044;8.716;2022-12-18T13:40:57;100020.34;;;-0.81;61.93
25610;BME280;13479;49.044;8.716;2022-12-18T13:43:42;100030.88;;;-0.86;61.77
25610;BME280;13479;49.044;8.716;2022-12-18T13:46:27;100012.91;;;-0.98;62.22
25610;BME280;13479;49.044;8.716;2022-12-18T13:49:00;100000.03;;;-1.06;62.77
25610;BME280;13479;49.044;8.716;2022-12-18T13:51:27;100007.91;;;-1.07;62.96
25610;BME280;13479;49.044;8.716;2022-12-18T13:53:57;99998.13;;;-0.98;62.80
25610;BME280;13479;49.044;8.716;2022-12-18T13:56:31;100026.75;;;-0.96;62.59
25610;BME280;13479;49.044;8.716;2022-12-18T13:59:18;100029.31;;;-0.95;62.41
25610;BME280;13479;49.044;8.716;2022-12-18T14:01:46;100021.75;;;-1.05;62.91
25610;BME280;13479;49.044;8.716;2022-12-18T14:04:26;100006.22;;;-1.10;62.94
25610;BME280;13479;49.044;8.716;2022-12-18T14:07:16;100005.47;;;-1.15;63.47
25610;BME280;13479;49.044;8.716;2022-12-18T14:09:45;100003.09;;;-1.26;63.82
25610;BME280;13479;49.044;8.716;2022-12-18T14:12:31;100008.16;;;-1.20;63.91
25610;BME280;13479;49.044;8.716;2022-12-18T14:15:51;100003.84;;;-1.21;63.72
25610;BME280;13479;49.044;8.716;2022-12-18T14:18:25;100003.16;;;-1.29;64.65
25610;BME280;13479;49.044;8.716;2022-12-18T14:20:54;99995.44;;;-1.34;65.06
25610;BME280;13479;49.044;8.716;2022-12-18T14:23:31;100015.41;;;-1.33;64.61
25610;BME280;13479;49.044;8.716;2022-12-18T14:25:57;100001.59;;;-1.38;65.33
25610;BME280;13479;49.044;8.716;2022-12-18T14:28:23;100025.75;;;-1.30;64.55
25610;BME280;13479;49.044;8.716;2022-12-18T14:30:49;100023.28;;;-1.36;64.97
25610;BME280;13479;49.044;8.716;2022-12-18T14:33:27;100002.59;;;-1.44;65.18
25610;BME280;13479;49.044;8.716;2022-12-18T14:36:04;100005.97;;;-1.40;65.01
25610;BME280;13479;49.044;8.716;2022-12-18T14:38:34;100000.03;;;-1.45;65.11
25610;BME280;13479;49.044;8.716;2022-12-18T14:43:28;100001.09;;;-1.56;65.54
25610;BME280;13479;49.044;8.716;2022-12-18T14:45:55;99988.91;;;-1.53;65.66
25610;BME280;13479;49.044;8.716;2022-12-18T14:48:39;99998.47;;;-1.54;65.64
25610;BME280;13479;49.044;8.716;2022-12-18T14:51:20;99997.63;;;-1.54;65.41
25610;BME280;13479;49.044;8.716;2022-12-18T14:53:47;100019.88;;;-1.40;65.00
25610;BME280;13479;49.044;8.716;2022-12-18T14:56:16;100037.44;;;-1.49;65.21
25610;BME280;13479;49.044;8.716;2022-12-18T14:58:51;100016.84;;;-1.60;65.29
25610;BME280;13479;49.044;8.716;2022-12-18T15:03:52;100021.88;;;-1.52;65.52
25610;BME280;13479;49.044;8.716;2022-12-18T15:08:51;99984.16;;;-1.75;65.99
25610;BME280;13479;49.044;8.716;2022-12-18T15:11:30;99999.78;;;-1.75;65.94
25610;BME280;13479;49.044;8.716;2022-12-18T15:13:58;99981.50;;;-1.74;66.02
25610;BME280;13479;49.044;8.716;2022-12-18T15:16:23;99989.34;;;-1.75;65.87
25610;BME280;13479;49.044;8.716;2022-12-18T15:18:49;99985.94;;;-1.77;66.09
25610;BME280;13479;49.044;8.716;2022-12-18T15:21:18;99979.94;;;-1.81;66.04
25610;BME280;13479;49.044;8.716;2022-12-18T15:26:10;99980.78;;;-1.80;65.91
25610;BME280;13479;49.044;8.716;2022-12-18T15:28:48;99987.78;;;-1.86;66.01
25610;BME280;13479;49.044;8.716;2022-12-18T15:36:15;99980.91;;;-1.87;66.28
25610;BME280;13479;49.044;8.716;2022-12-18T15:38:41;99975.56;;;-1.80;66.47
25610;BME280;13479;49.044;8.716;2022-12-18T15:41:13;99991.97;;;-1.77;66.08
25610;BME280;13479;49.044;8.716;2022-12-18T15:43:39;99996.34;;;-1.77;65.98
25610;BME280;13479;49.044;8.716;2022-12-18T15:46:24;99989.41;;;-1.80;66.39
25610;BME280;13479;49.044;8.716;2022-12-18T15:48:53;99986.84;;;-1.81;66.21
25610;BME280;13479;49.044;8.716;2022-12-18T15:51:24;99970.31;;;-1.79;66.60
25610;BME280;13479;49.044;8.716;2022-12-18T15:53:54;99985.84;;;-1.74;66.32
25610;BME280;13479;49.044;8.716;2022-12-18T15:56:20;99994.38;;;-1.67;66.26
25610;BME280;13479;49.044;8.716;2022-12-18T15:59:09;100005.63;;;-1.65;66.27
25610;BME280;13479;49.044;8.716;2022-12-18T16:01:35;100007.44;;;-1.69;66.29
25610;BME280;13479;49.044;8.716;2022-12-18T16:04:00;99999.63;;;-1.69;66.23
25610;BME280;13479;49.044;8.716;2022-12-18T16:06:25;99982.25;;;-1.67;66.27
25610;BME280;13479;49.044;8.716;2022-12-18T16:08:51;99987.44;;;-1.67;66.25
25610;BME280;13479;49.044;8.716;2022-12-18T16:11:22;99969.22;;;-1.68;66.27
25610;BME280;13479;49.044;8.716;2022-12-18T16:14:26;99964.97;;;-1.71;66.47
25610;BME280;13479;49.044;8.716;2022-12-18T16:16:58;99961.53;;;-1.73;66.76
25610;BME280;13479;49.044;8.716;2022-12-18T16:19:24;99949.38;;;-1.74;66.69
25610;BME280;13479;49.044;8.716;2022-12-18T16:21:51;99955.38;;;-1.69;66.86
25610;BME280;13479;49.044;8.716;2022-12-18T16:24:19;99964.00;;;-1.67;66.60
25610;BME280;13479;49.044;8.716;2022-12-18T16:26:46;99969.06;;;-1.59;66.54
25610;BME280;13479;49.044;8.716;2022-12-18T16:29:12;99985.59;;;-1.62;66.91
25610;BME280;13479;49.044;8.716;2022-12-18T16:31:37;99981.84;;;-1.47;66.17
25610;BME280;13479;49.044;8.716;2022-12-18T16:34:22;100018.19;;;-1.42;65.96
25610;BME280;13479;49.044;8.716;2022-12-18T16:36:49;100051.03;;;-1.35;65.87
25610;BME280;13479;49.044;8.716;2022-12-18T16:39:15;100075.31;;;-1.33;65.83
25610;BME280;13479;49.044;8.716;2022-12-18T16:41:40;100074.53;;;-1.36;65.84
25610;BME280;13479;49.044;8.716;2022-12-18T16:44:06;100089.00;;;-1.23;65.67
25610;BME280;13479;49.044;8.716;2022-12-18T16:46:31;100092.44;;;-1.19;65.58
25610;BME280;13479;49.044;8.716;2022-12-18T16:48:57;100100.09;;;-1.13;65.41
25610;BME280;13479;49.044;8.716;2022-12-18T16:51:24;100100.94;;;-1.11;65.33
25610;BME280;13479;49.044;8.716;2022-12-18T16:53:49;100100.00;;;-1.09;65.32
25610;BME280;13479;49.044;8.716;2022-12-18T16:56:14;100102.66;;;-1.10;65.22
25610;BME280;13479;49.044;8.716;2022-12-18T16:58:40;100111.31;;;-1.08;65.32
25610;BME280;13479;49.044;8.716;2022-12-18T17:01:09;100119.03;;;-1.05;65.02
25610;BME280;13479;49.044;8.716;2022-12-18T17:03:35;100126.88;;;-1.05;65.20
25610;BME280;13479;49.044;8.716;2022-12-18T17:06:04;100109.59;;;-1.09;65.15
25610;BME280;13479;49.044;8.716;2022-12-18T17:08:30;100105.91;;;-1.00;64.93
25610;BME280;13479;49.044;8.716;2022-12-18T17:10:55;100111.16;;;-1.02;65.15
25610;BME280;13479;49.044;8.716;2022-12-18T17:13:20;100109.34;;;-0.97;64.98
25610;BME280;13479;49.044;8.716;2022-12-18T17:15:46;100131.13;;;-1.01;64.43
25610;BME280;13479;49.044;8.716;2022-12-18T17:18:11;100125.97;;;-1.04;64.96
25610;BME280;13479;49.044;8.716;2022-12-18T17:20:36;100124.31;;;-1.06;65.17
25610;BME280;13479;49.044;8.716;2022-12-18T17:23:01;100114.81;;;-1.09;65.21
25610;BME280;13479;49.044;8.716;2022-12-18T17:25:27;100101.88;;;-1.14;65.31
25610;BME280;13479;49.044;8.716;2022-12-18T17:27:52;100080.34;;;-1.23;65.71
25610;BME280;13479;49.044;8.716;2022-12-18T17:30:17;100041.31;;;-1.27;66.03
25610;BME280;13479;49.044;8.716;2022-12-18T17:32:42;100028.16;;;-1.20;65.63
25610;BME280;13479;49.044;8.716;2022-12-18T17:35:08;100040.22;;;-1.16;65.74
25610;BME280;13479;49.044;8.716;2022-12-18T17:37:33;100047.34;;;-1.25;65.60
25610;BME280;13479;49.044;8.716;2022-12-18T17:39:58;100029.16;;;-1.28;65.97
25610;BME280;13479;49.044;8.716;2022-12-18T17:42:24;100018.84;;;-1.31;65.96
25610;BME280;13479;49.044;8.716;2022-12-18T17:44:50;100011.91;;;-1.32;65.97
25610;BME280;13479;49.044;8.716;2022-12-18T17:47:16;100028.44;;;-1.33;65.29
25610;BME280;13479;49.044;8.716;2022-12-18T17:49:41;100018.91;;;-1.34;65.81
25610;BME280;13479;49.044;8.716;2022-12-18T17:52:06;100012.09;;;-1.41;65.96
25610;BME280;13479;49.044;8.716;2022-12-18T17:54:32;100017.28;;;-1.40;65.95
25610;BME280;13479;49.044;8.716;2022-12-18T17:56:57;99988.91;;;-1.53;66.34
25610;BME280;13479;49.044;8.716;2022-12-18T17:59:22;99953.25;;;-1.50;66.49
25610;BME280;13479;49.044;8.716;2022-12-18T18:01:48;99957.56;;;-1.50;66.35
25610;BME280;13479;49.044;8.716;2022-12-18T18:04:13;99953.19;;;-1.47;66.46
25610;BME280;13479;49.044;8.716;2022-12-18T18:06:39;99965.22;;;-1.41;66.19
25610;BME280;13479;49.044;8.716;2022-12-18T18:09:04;99947.16;;;-1.49;66.59
25610;BME280;13479;49.044;8.716;2022-12-18T18:11:30;99934.06;;;-1.47;66.49
25610;BME280;13479;49.044;8.716;2022-12-18T18:14:19;99926.94;;;-1.39;66.43
25610;BME280;13479;49.044;8.716;2022-12-18T18:16:46;99920.94;;;-1.41;66.57
25610;BME280;13479;49.044;8.716;2022-12-18T18:19:15;99965.84;;;-1.30;66.35
25610;BME280;13479;49.044;8.716;2022-12-18T18:21:42;99970.44;;;-1.41;66.57
25610;BME280;13479;49.044;8.716;2022-12-18T18:24:10;99968.28;;;-1.23;66.02
25610;BME280;13479;49.044;8.716;2022-12-18T18:26:36;100007.22;;;-1.17;65.85
25610;BME280;13479;49.044;8.716;2022-12-18T18:29:04;100029.78;;;-1.16;65.80
25610;BME280;13479;49.044;8.716;2022-12-18T18:31:30;100027.50;;;-1.30;66.16
25610;BME280;13479;49.044;8.716;2022-12-18T18:33:56;100016.78;;;-1.16;66.00
25610;BME280;13479;49.044;8.716;2022-12-18T18:36:22;100028.81;;;-1.11;65.64
25610;BME280;13479;49.044;8.716;2022-12-18T18:38:49;100052.25;;;-1.09;65.78
25610;BME280;13479;49.044;8.716;2022-12-18T18:41:14;100025.41;;;-1.14;66.08
25610;BME280;13479;49.044;8.716;2022-12-18T18:43:40;100055.59;;;-1.04;65.33
25610;BME280;13479;49.044;8.716;2022-12-18T18:46:05;100073.84;;;-1.04;65.42
25610;BME280;13479;49.044;8.716;2022-12-18T18:48:33;100078.06;;;-0.98;65.36
25610;BME280;13479;49.044;8.716;2022-12-18T18:51:03;100089.31;;;-0.96;65.10
25610;BME280;13479;49.044;8.716;2022-12-18T18:53:29;100079.94;;;-1.05;65.23
25610;BME280;13479;49.044;8.716;2022-12-18T18:55:58;100057.25;;;-1.00;65.49
25610;BME280;13479;49.044;8.716;2022-12-18T18:58:24;100053.03;;;-1.05;65.54
25610;BME280;13479;49.044;8.716;2022-12-18T19:01:01;100030.38;;;-1.02;65.65
25610;BME280;13479;49.044;8.716;2022-12-18T19:03:26;100042.44;;;-0.98;65.49
25610;BME280;13479;49.044;8.716;2022-12-18T19:05:57;100041.56;;;-0.97;65.69